Drumheller, Canada
Current Conditions -  °F | °C
As of 3:00 AM on Thursday 27 Nov 2014 (Local Time) from CYYC Reporting Station
Light Snow Light Snow  
Wind Chill: 17°   Ceiling: 500
Heat Index: 27°   Visibility: 1.2mi
Dew Point: 25°   Wind: 10mph
Humidity: 93%   Direction: 120°ESE
Pressure: 29.82"   Gusts: NA
Location:  51.46°N, 112.71°W
Report Text: CYYC 271000Z 12009KT 1 1/4SM -SN VV005 M03/M04 A2982 RMK SN8 /S02/ SLP151
Loading
Personal Weather Stations






























Interactive Weather Map New forecast layout! Learn more

10-Day Weather Forecast

Advertisements
Track Severe Weather on mobile